Terminal Aerodrome Forecast
Issued by NWS

Home | Current Version | Previous Version | Text Only | Print | Product List | Glossary On
Versions: 1 2 3 4 5 6 7 8 9 10 11 12 13 14 15 16 17 18
000
FTUS45 KABQ 271123
TAFROW
TAF
KROW 271123Z 2712/2812 VRB03KT P6SM SKC
     FM271700 16010G16KT P6SM FEW070
     FM272300 17012G20KT P6SM SCT090
     FM280200 18012KT P6SM SCT090 SCT150=

USA.gov is the U.S. government's official web portal to all federal, state and local government web resources and services.